createdAt,value
2023-10-06T00:02:29.746Z,5.70
2023-10-06T00:04:57.108Z,7.18
2023-10-06T00:07:25.227Z,6.28
2023-10-06T00:09:54.894Z,7.82
2023-10-06T00:12:21.708Z,6.78
2023-10-06T00:14:51.491Z,7.35
2023-10-06T00:17:18.911Z,6.55
2023-10-06T00:22:19.065Z,5.75
2023-10-06T00:24:48.958Z,6.53
2023-10-06T00:27:16.751Z,7.15
2023-10-06T00:29:53.820Z,8.18
2023-10-06T00:32:23.433Z,6.65
2023-10-06T00:34:55.620Z,5.78
2023-10-06T00:37:25.834Z,5.38
2023-10-06T00:39:58.510Z,6.30
2023-10-06T00:42:27.761Z,6.85
2023-10-06T00:44:54.943Z,5.72
2023-10-06T00:47:22.628Z,6.20
2023-10-06T00:49:49.497Z,7.55
2023-10-06T00:52:16.800Z,5.25
2023-10-06T00:54:45.010Z,7.90
2023-10-06T00:57:20.055Z,7.30
2023-10-06T00:59:46.746Z,7.13
2023-10-06T01:02:17.240Z,8.13
2023-10-06T01:04:53.757Z,8.40
2023-10-06T01:07:20.434Z,6.20
2023-10-06T01:10:08.116Z,11.02
2023-10-06T01:12:35.741Z,8.40
2023-10-06T01:15:20.806Z,9.38
2023-10-06T01:17:48.736Z,4.63
2023-10-06T01:20:34.741Z,5.82
2023-10-06T01:25:29.361Z,6.95
2023-10-06T01:27:55.829Z,6.68
2023-10-06T01:30:22.895Z,7.07
2023-10-06T01:32:52.824Z,5.10
2023-10-06T01:35:22.383Z,5.28
2023-10-06T01:37:49.559Z,5.28
2023-10-06T01:40:36.494Z,6.78
2023-10-06T01:43:11.099Z,6.00
2023-10-06T01:45:45.041Z,5.88
2023-10-06T01:48:14.698Z,6.05
2023-10-06T01:50:42.673Z,6.95
2023-10-06T01:53:11.514Z,5.82
2023-10-06T01:55:39.615Z,7.10
2023-10-06T01:58:08.778Z,6.50
2023-10-06T02:00:37.143Z,5.68
2023-10-06T02:03:11.987Z,6.55
2023-10-06T02:05:42.094Z,5.68
2023-10-06T02:08:15.852Z,6.40
2023-10-06T02:13:12.753Z,5.18
2023-10-06T02:15:39.306Z,7.35
2023-10-06T02:18:08.443Z,5.35
2023-10-06T02:20:36.100Z,9.02
2023-10-06T02:23:04.552Z,7.13
2023-10-06T02:25:32.841Z,6.30
2023-10-06T02:28:05.261Z,5.35
2023-10-06T02:30:35.229Z,6.35
2023-10-06T02:33:01.991Z,7.05
2023-10-06T02:35:28.649Z,6.72
2023-10-06T02:37:59.034Z,6.25
2023-10-06T02:40:32.393Z,6.60
2023-10-06T02:43:01.359Z,7.68
2023-10-06T02:45:38.425Z,6.07
2023-10-06T02:48:15.505Z,9.15
2023-10-06T02:50:45.733Z,6.55
2023-10-06T02:53:21.283Z,8.85
2023-10-06T02:55:50.377Z,6.53
2023-10-06T02:58:28.150Z,6.75
2023-10-06T03:00:56.832Z,7.15
2023-10-06T03:03:28.018Z,9.35
2023-10-06T03:05:56.981Z,6.90
2023-10-06T03:08:29.002Z,5.85
2023-10-06T03:10:55.562Z,7.03
2023-10-06T03:13:44.119Z,8.98
2023-10-06T03:16:13.807Z,6.85
2023-10-06T03:18:40.870Z,8.13
2023-10-06T03:21:13.400Z,7.10
2023-10-06T03:23:40.466Z,7.25
2023-10-06T03:26:25.839Z,11.15
2023-10-06T03:28:54.345Z,8.57
2023-10-06T03:31:21.623Z,7.90
2023-10-06T03:33:56.073Z,5.93
2023-10-06T03:36:35.530Z,6.55
2023-10-06T03:39:08.316Z,7.35
2023-10-06T03:41:38.364Z,6.30
2023-10-06T03:44:06.247Z,7.53
2023-10-06T03:46:39.218Z,8.93
2023-10-06T03:49:06.602Z,9.85
2023-10-06T03:51:38.927Z,8.63
2023-10-06T03:54:06.399Z,6.70
2023-10-06T03:56:33.641Z,7.47
2023-10-06T03:59:06.482Z,9.10
2023-10-06T04:01:33.359Z,7.22
2023-10-06T04:04:00.103Z,9.30
2023-10-06T04:06:29.659Z,10.48
2023-10-06T04:08:58.245Z,7.20
2023-10-06T04:11:31.047Z,7.85
2023-10-06T04:13:59.049Z,9.85
2023-10-06T04:16:26.397Z,7.07
2023-10-06T04:18:52.978Z,8.18
2023-10-06T04:21:21.338Z,8.60
2023-10-06T04:23:47.886Z,8.02
2023-10-06T04:26:17.724Z,10.68
2023-10-06T04:28:49.248Z,8.50
2023-10-06T04:31:19.586Z,6.80
2023-10-06T04:33:46.278Z,9.52
2023-10-06T04:36:14.236Z,8.05
2023-10-06T04:38:41.701Z,8.90
2023-10-06T04:43:37.589Z,13.13
2023-10-06T04:48:37.063Z,11.68
2023-10-06T04:51:05.042Z,8.50
2023-10-06T04:53:37.644Z,8.00
2023-10-06T04:56:05.720Z,11.90
2023-10-06T04:58:32.547Z,7.18
2023-10-06T05:01:02.009Z,12.23
2023-10-06T05:03:28.917Z,9.00
2023-10-06T05:05:57.061Z,8.35
2023-10-06T05:08:25.812Z,12.80
2023-10-06T05:10:57.152Z,7.45
2023-10-06T05:13:23.856Z,9.00
2023-10-06T05:15:51.284Z,7.00
2023-10-06T05:18:17.954Z,8.15
2023-10-06T05:20:44.894Z,9.73
2023-10-06T05:23:13.110Z,8.43
2023-10-06T05:25:40.995Z,7.57
2023-10-06T05:28:12.031Z,9.13
2023-10-06T05:30:39.678Z,10.90
2023-10-06T05:35:39.748Z,8.50
2023-10-06T05:38:09.800Z,8.52
2023-10-06T05:40:36.644Z,10.30
2023-10-06T05:43:05.505Z,7.15
2023-10-06T05:45:32.270Z,10.90
2023-10-06T05:48:08.089Z,8.52
2023-10-06T05:50:36.867Z,11.93
2023-10-06T05:53:13.984Z,9.18
2023-10-06T05:55:44.302Z,8.68
2023-10-06T05:58:15.685Z,10.20
2023-10-06T06:00:52.455Z,9.25
2023-10-06T06:03:22.015Z,10.10
2023-10-06T06:05:49.912Z,9.55
2023-10-06T06:08:16.501Z,9.45
2023-10-06T06:10:43.276Z,11.68
2023-10-06T06:13:09.878Z,7.38
2023-10-06T06:15:36.716Z,12.60
2023-10-06T06:18:03.406Z,8.60
2023-10-06T06:20:30.369Z,8.15
2023-10-06T06:23:03.447Z,7.93
2023-10-06T06:25:30.864Z,11.98
2023-10-06T06:28:00.512Z,8.65
2023-10-06T06:30:28.069Z,9.70
2023-10-06T06:32:55.829Z,8.02
2023-10-06T06:35:24.292Z,8.65
2023-10-06T06:37:52.578Z,9.43
2023-10-06T06:40:23.580Z,11.68
2023-10-06T06:42:52.638Z,8.35
2023-10-06T06:45:20.324Z,6.93
2023-10-06T06:50:15.235Z,7.55
2023-10-06T06:52:42.251Z,11.75
2023-10-06T06:55:13.921Z,10.43
2023-10-06T06:57:43.233Z,8.77
2023-10-06T07:00:16.935Z,8.38
2023-10-06T07:05:15.264Z,9.40
2023-10-06T07:07:44.414Z,9.95
2023-10-06T07:10:14.986Z,10.95
2023-10-06T07:12:46.178Z,12.63
2023-10-06T07:15:19.084Z,12.88
2023-10-06T07:17:47.975Z,7.22
2023-10-06T07:20:17.930Z,10.70
2023-10-06T07:22:48.734Z,15.10
2023-10-06T07:25:16.848Z,7.47
2023-10-06T07:27:45.747Z,8.45
2023-10-06T07:30:16.012Z,11.18
2023-10-06T07:32:44.410Z,9.57
2023-10-06T07:35:15.819Z,6.38
2023-10-06T07:37:44.242Z,10.80
2023-10-06T07:40:15.848Z,6.50
2023-10-06T07:42:43.715Z,8.15
2023-10-06T07:45:10.709Z,9.70
2023-10-06T07:47:39.169Z,9.90
2023-10-06T07:50:06.712Z,8.27
2023-10-06T07:55:10.916Z,9.93
2023-10-06T08:00:08.205Z,7.88
2023-10-06T08:02:34.762Z,6.45
2023-10-06T08:05:01.274Z,6.68
2023-10-06T08:07:28.860Z,9.38
2023-10-06T08:09:59.999Z,6.47
2023-10-06T08:12:28.391Z,9.07
2023-10-06T08:14:55.604Z,8.02
2023-10-06T08:17:22.187Z,7.85
2023-10-06T08:19:48.788Z,8.75
2023-10-06T08:22:17.035Z,9.23
2023-10-06T08:24:44.629Z,7.35
2023-10-06T08:29:39.638Z,7.28
2023-10-06T08:32:07.713Z,6.53
2023-10-06T08:34:40.344Z,9.98
2023-10-06T08:37:12.288Z,8.52
2023-10-06T08:39:41.915Z,8.85
2023-10-06T08:42:13.195Z,7.63
2023-10-06T08:44:43.121Z,9.07
2023-10-06T08:47:26.313Z,10.63
2023-10-06T08:49:57.614Z,6.85
2023-10-06T08:52:24.274Z,8.98
2023-10-06T08:54:50.771Z,7.43
2023-10-06T08:57:17.301Z,11.73
2023-10-06T08:59:45.014Z,8.00
2023-10-06T09:02:11.708Z,7.10
2023-10-06T09:04:38.377Z,10.15
2023-10-06T09:07:09.795Z,8.80
2023-10-06T09:09:37.504Z,8.32
2023-10-06T09:12:05.047Z,5.93
2023-10-06T09:17:02.918Z,10.25
2023-10-06T09:19:50.027Z,6.18
2023-10-06T09:22:17.778Z,7.10
2023-10-06T09:24:57.068Z,6.70
2023-10-06T09:27:26.366Z,7.60
2023-10-06T09:30:11.874Z,6.90
2023-10-06T09:32:40.307Z,7.38
2023-10-06T09:35:20.555Z,9.05
2023-10-06T09:37:47.751Z,9.05
2023-10-06T09:40:24.021Z,8.40
2023-10-06T09:42:51.937Z,9.93
2023-10-06T09:45:22.665Z,8.32
2023-10-06T09:48:00.753Z,6.47
2023-10-06T09:50:29.692Z,6.13
2023-10-06T09:53:04.445Z,5.35
2023-10-06T09:55:32.473Z,4.82
2023-10-06T09:57:59.538Z,6.70
2023-10-06T10:00:31.045Z,6.28
2023-10-06T10:02:59.281Z,5.00
2023-10-06T10:05:26.618Z,5.78
2023-10-06T10:10:24.825Z,5.78
2023-10-06T10:13:08.790Z,5.28
2023-10-06T10:16:11.027Z,4.50
2023-10-06T10:18:41.751Z,5.97
2023-10-06T10:21:13.139Z,4.97
2023-10-06T10:23:42.734Z,4.35
2023-10-06T10:26:17.497Z,5.05
2023-10-06T10:28:46.861Z,4.25
2023-10-06T10:31:18.735Z,5.32
2023-10-06T10:33:48.111Z,5.80
2023-10-06T10:36:16.089Z,6.03
2023-10-06T10:38:43.502Z,4.05
2023-10-06T10:41:11.330Z,4.28
2023-10-06T10:43:46.853Z,3.60
2023-10-06T10:46:14.035Z,3.75
2023-10-06T10:48:48.699Z,4.03
2023-10-06T10:51:16.439Z,3.45
2023-10-06T10:53:49.087Z,3.42
2023-10-06T10:56:26.511Z,4.68
2023-10-06T10:58:55.000Z,4.88
2023-10-06T11:01:28.931Z,3.67
2023-10-06T11:04:20.033Z,4.97
2023-10-06T11:06:51.042Z,4.68
2023-10-06T11:09:30.846Z,3.95
2023-10-06T11:12:23.222Z,4.03
2023-10-06T11:14:53.294Z,4.85
2023-10-06T11:17:22.006Z,3.85
2023-10-06T11:20:06.136Z,5.10
2023-10-06T11:22:34.364Z,4.43
2023-10-06T11:25:04.671Z,4.05
2023-10-06T11:27:31.270Z,4.18
2023-10-06T11:29:59.932Z,4.00
2023-10-06T11:32:27.827Z,4.85
2023-10-06T11:34:55.701Z,4.03
2023-10-06T11:37:26.288Z,3.60
2023-10-06T11:39:54.692Z,3.80
2023-10-06T11:42:27.288Z,6.50
2023-10-06T11:44:54.454Z,4.07
2023-10-06T11:47:25.783Z,3.40
2023-10-06T11:49:58.573Z,3.72
2023-10-06T11:52:31.003Z,3.42
2023-10-06T11:54:59.905Z,4.72
2023-10-06T11:57:47.446Z,4.40
2023-10-06T12:00:18.516Z,4.05
2023-10-06T12:02:51.545Z,4.55
2023-10-06T12:05:24.249Z,3.58
2023-10-06T12:07:51.129Z,4.88
2023-10-06T12:10:20.083Z,3.17
2023-10-06T12:12:47.336Z,2.85
2023-10-06T12:15:17.923Z,2.70
2023-10-06T12:17:45.029Z,2.72
2023-10-06T12:20:15.317Z,2.70
2023-10-06T12:22:45.219Z,4.85
2023-10-06T12:25:13.085Z,4.18
2023-10-06T12:27:44.768Z,3.33
2023-10-06T12:30:15.767Z,3.13
2023-10-06T12:32:46.835Z,4.57
2023-10-06T12:35:19.268Z,2.45
2023-10-06T12:37:47.585Z,3.47
2023-10-06T12:40:16.688Z,2.75
2023-10-06T12:42:44.406Z,2.03
2023-10-06T12:45:19.623Z,4.60
2023-10-06T12:47:50.747Z,3.17
2023-10-06T12:50:20.371Z,2.63
2023-10-06T12:52:50.919Z,2.72
2023-10-06T12:55:22.208Z,4.03
2023-10-06T12:57:53.403Z,2.50
2023-10-06T13:00:21.069Z,2.65
2023-10-06T13:02:51.117Z,4.97
2023-10-06T13:05:20.126Z,3.90
2023-10-06T13:07:48.140Z,2.85
2023-10-06T13:10:17.124Z,3.47
2023-10-06T13:12:44.750Z,5.00
2023-10-06T13:15:15.959Z,5.60
2023-10-06T13:17:43.142Z,4.15
2023-10-06T13:20:11.147Z,5.60
2023-10-06T13:22:38.789Z,4.13
2023-10-06T13:25:07.622Z,3.03
2023-10-06T13:27:35.175Z,3.90
2023-10-06T13:30:04.774Z,4.07
2023-10-06T13:32:31.559Z,3.78
2023-10-06T13:34:58.299Z,3.40
2023-10-06T13:37:25.304Z,3.70
2023-10-06T13:39:51.787Z,2.75
2023-10-06T13:42:18.622Z,3.10
2023-10-06T13:44:45.948Z,3.45
2023-10-06T13:47:12.531Z,2.55
2023-10-06T13:49:39.820Z,2.60
2023-10-06T13:52:06.946Z,3.58
2023-10-06T13:57:01.739Z,2.83
2023-10-06T13:59:29.853Z,3.10
2023-10-06T14:01:56.611Z,3.78
2023-10-06T14:04:25.011Z,3.33
2023-10-06T14:06:51.612Z,3.33
2023-10-06T14:09:24.942Z,2.90
2023-10-06T14:11:53.344Z,3.92
2023-10-06T14:14:55.875Z,3.35
2023-10-06T14:17:27.762Z,3.92
2023-10-06T14:19:54.392Z,3.03
2023-10-06T14:22:22.502Z,4.03
2023-10-06T14:24:49.723Z,3.25
2023-10-06T14:29:46.416Z,4.25
2023-10-06T14:32:19.799Z,3.25
2023-10-06T14:35:13.444Z,5.00
2023-10-06T14:37:41.617Z,3.63
2023-10-06T14:40:27.715Z,2.70
2023-10-06T14:43:13.019Z,3.95
2023-10-06T14:45:58.063Z,4.15
2023-10-06T14:48:28.592Z,4.22
2023-10-06T14:50:58.927Z,3.30
2023-10-06T14:53:29.514Z,3.92
2023-10-06T14:55:57.385Z,5.22
2023-10-06T14:58:24.359Z,2.72
2023-10-06T15:00:50.893Z,3.40
2023-10-06T15:03:18.467Z,3.72
2023-10-06T15:05:46.444Z,4.53
2023-10-06T15:08:13.885Z,5.45
2023-10-06T15:10:42.068Z,4.03
2023-10-06T15:13:14.847Z,4.65
2023-10-06T15:15:43.640Z,5.82
2023-10-06T15:18:16.486Z,4.47
2023-10-06T15:20:43.782Z,6.88
2023-10-06T15:23:14.223Z,3.22
2023-10-06T15:25:54.094Z,4.10
2023-10-06T15:28:31.791Z,3.72
2023-10-06T15:31:05.878Z,3.25
2023-10-06T15:33:34.088Z,3.10
2023-10-06T15:36:04.603Z,5.78
2023-10-06T15:38:32.316Z,4.35
2023-10-06T15:41:16.930Z,3.17
2023-10-06T15:43:46.930Z,3.28
2023-10-06T15:46:16.215Z,4.18
2023-10-06T15:48:43.343Z,6.97
2023-10-06T15:51:12.166Z,4.72
2023-10-06T15:53:41.006Z,4.20
2023-10-06T15:56:16.181Z,6.97
2023-10-06T15:58:45.274Z,6.22
2023-10-06T16:01:13.200Z,5.50
2023-10-06T16:03:42.271Z,4.32
2023-10-06T16:06:13.622Z,7.47
2023-10-06T16:08:44.434Z,5.00
2023-10-06T16:11:11.514Z,5.10
2023-10-06T16:13:40.301Z,4.68
2023-10-06T16:16:12.593Z,5.47
2023-10-06T16:18:39.826Z,5.55
2023-10-06T16:21:12.641Z,5.35
2023-10-06T16:23:42.225Z,6.03
2023-10-06T16:26:10.457Z,3.72
2023-10-06T16:28:40.371Z,5.03
2023-10-06T16:31:08.234Z,5.60
2023-10-06T16:33:37.567Z,4.43
2023-10-06T16:36:07.694Z,6.38
2023-10-06T16:38:34.820Z,5.50
2023-10-06T16:41:01.860Z,4.90
2023-10-06T16:43:35.813Z,6.43
2023-10-06T16:46:12.196Z,4.80
2023-10-06T16:48:42.353Z,5.78
2023-10-06T16:51:09.462Z,5.40
2023-10-06T16:53:37.172Z,6.40
2023-10-06T16:56:06.034Z,4.85
2023-10-06T16:58:33.027Z,6.68
2023-10-06T17:01:05.526Z,8.32
2023-10-06T17:03:33.393Z,5.55
2023-10-06T17:06:00.844Z,10.07
2023-10-06T17:08:27.643Z,5.85
2023-10-06T17:10:54.195Z,6.85
2023-10-06T17:13:23.639Z,11.15
2023-10-06T17:15:50.468Z,8.70
2023-10-06T17:18:17.198Z,7.88
2023-10-06T17:20:45.361Z,7.00
2023-10-06T17:23:12.826Z,6.57
2023-10-06T17:28:07.707Z,8.98
2023-10-06T17:30:37.091Z,8.75
2023-10-06T17:33:08.183Z,10.75
2023-10-06T17:35:35.642Z,7.97
2023-10-06T17:38:02.422Z,8.00
2023-10-06T17:40:30.174Z,6.68
2023-10-06T17:42:56.706Z,6.95
2023-10-06T17:45:26.616Z,5.47
2023-10-06T17:47:56.530Z,10.23
2023-10-06T17:50:24.028Z,6.30
2023-10-06T17:52:50.789Z,8.20
2023-10-06T17:55:17.436Z,4.90
2023-10-06T17:57:43.988Z,5.72
2023-10-06T18:00:12.212Z,5.63
2023-10-06T18:02:39.843Z,9.82
2023-10-06T18:05:09.621Z,14.50
2023-10-06T18:07:36.714Z,9.23
2023-10-06T18:10:09.125Z,7.90
2023-10-06T18:12:37.860Z,19.63
2023-10-06T18:15:06.651Z,12.80
2023-10-06T18:17:33.665Z,7.22
2023-10-06T18:20:00.296Z,15.25
2023-10-06T18:22:28.226Z,8.23
2023-10-06T18:24:54.836Z,8.07
2023-10-06T18:27:22.176Z,9.00
2023-10-06T18:29:48.643Z,8.00
2023-10-06T18:32:15.736Z,9.35
2023-10-06T18:34:43.157Z,9.57
2023-10-06T18:37:09.829Z,9.18
2023-10-06T18:39:37.135Z,8.55
2023-10-06T18:42:03.722Z,10.20
2023-10-06T18:44:30.336Z,7.18
2023-10-06T18:46:56.969Z,10.45
2023-10-06T18:49:23.590Z,8.52
2023-10-06T18:51:50.236Z,6.18
2023-10-06T18:54:16.739Z,7.28
2023-10-06T18:56:43.419Z,7.15
2023-10-06T18:59:10.088Z,9.00
2023-10-06T19:01:37.076Z,7.63
2023-10-06T19:04:07.168Z,6.50
2023-10-06T19:06:33.969Z,7.85
2023-10-06T19:09:00.511Z,6.13
2023-10-06T19:11:27.056Z,7.85
2023-10-06T19:13:53.862Z,6.07
2023-10-06T19:16:21.548Z,8.20
2023-10-06T19:18:51.475Z,10.65
2023-10-06T19:21:21.766Z,9.13
2023-10-06T19:23:49.585Z,5.90
2023-10-06T19:26:20.846Z,7.38
2023-10-06T19:28:48.070Z,5.50
2023-10-06T19:31:14.923Z,6.53
2023-10-06T19:33:52.147Z,7.63
2023-10-06T19:36:20.933Z,9.05
2023-10-06T19:38:48.623Z,5.88
2023-10-06T19:43:43.049Z,7.47
2023-10-06T19:46:11.317Z,5.47
2023-10-06T19:48:43.810Z,5.78
2023-10-06T19:51:11.144Z,7.38
2023-10-06T19:53:38.293Z,8.05
2023-10-06T19:56:05.633Z,4.65
2023-10-06T19:58:32.900Z,6.53
2023-10-06T20:01:00.049Z,6.68
2023-10-06T20:03:27.393Z,7.80
2023-10-06T20:05:54.790Z,4.53
2023-10-06T20:08:21.797Z,5.95
2023-10-06T20:10:53.489Z,7.07
2023-10-06T20:13:20.256Z,6.03
2023-10-06T20:15:47.412Z,5.10
2023-10-06T20:18:15.231Z,7.70
2023-10-06T20:20:43.332Z,6.20
2023-10-06T20:23:09.855Z,5.47
2023-10-06T20:25:36.313Z,9.63
2023-10-06T20:28:04.128Z,5.82
2023-10-06T20:30:31.678Z,6.82
2023-10-06T20:32:58.574Z,11.70
2023-10-06T20:35:27.884Z,4.60
2023-10-06T20:37:56.005Z,5.95
2023-10-06T20:40:25.948Z,7.50
2023-10-06T20:42:56.924Z,6.80
2023-10-06T20:45:28.117Z,6.13
2023-10-06T20:47:56.385Z,7.13
2023-10-06T20:50:26.733Z,6.68
2023-10-06T20:52:54.449Z,7.20
2023-10-06T20:55:21.842Z,7.47
2023-10-06T20:57:49.676Z,5.40
2023-10-06T21:00:23.000Z,7.50
2023-10-06T21:02:49.824Z,6.55
2023-10-06T21:05:18.319Z,5.40
2023-10-06T21:07:45.651Z,6.75
2023-10-06T21:10:14.587Z,6.32
2023-10-06T21:12:43.378Z,5.70
2023-10-06T21:15:11.987Z,9.45
2023-10-06T21:17:39.358Z,5.65
2023-10-06T21:22:35.307Z,4.97
2023-10-06T21:25:01.914Z,5.68
2023-10-06T21:27:29.266Z,6.43
2023-10-06T21:29:55.829Z,8.18
2023-10-06T21:32:22.323Z,7.07
2023-10-06T21:34:49.888Z,4.40
2023-10-06T21:37:16.473Z,6.18
2023-10-06T21:39:45.442Z,5.18
2023-10-06T21:42:12.153Z,6.82
2023-10-06T21:44:38.685Z,6.15
2023-10-06T21:47:05.398Z,6.55
2023-10-06T21:49:32.277Z,4.50
2023-10-06T21:51:59.486Z,5.60
2023-10-06T21:54:25.949Z,5.03
2023-10-06T21:56:53.071Z,6.20
2023-10-06T21:59:19.561Z,6.07
2023-10-06T22:01:46.196Z,6.60
2023-10-06T22:04:14.626Z,7.40
2023-10-06T22:06:41.423Z,5.88
2023-10-06T22:09:16.355Z,6.38
2023-10-06T22:11:45.301Z,6.95
2023-10-06T22:14:13.430Z,5.20
2023-10-06T22:16:41.191Z,7.45
2023-10-06T22:19:11.005Z,5.93
2023-10-06T22:21:37.939Z,7.50
2023-10-06T22:24:06.651Z,7.45
2023-10-06T22:26:33.257Z,6.20
2023-10-06T22:29:00.204Z,5.63
2023-10-06T22:31:27.156Z,7.50
2023-10-06T22:33:56.562Z,6.07
2023-10-06T22:36:24.215Z,5.78
2023-10-06T22:38:55.149Z,5.75
2023-10-06T22:41:21.906Z,5.38
2023-10-06T22:43:48.813Z,6.20
2023-10-06T22:46:16.138Z,7.90
2023-10-06T22:48:45.405Z,4.70
2023-10-06T22:51:13.661Z,10.20
2023-10-06T22:53:40.136Z,6.07
2023-10-06T22:56:07.286Z,6.10
2023-10-06T22:58:34.030Z,8.95
2023-10-06T23:01:01.458Z,8.27
2023-10-06T23:03:30.484Z,7.70
2023-10-06T23:05:58.048Z,4.88
2023-10-06T23:08:25.382Z,7.38
2023-10-06T23:10:52.196Z,5.20
2023-10-06T23:13:19.018Z,8.05
2023-10-06T23:15:48.464Z,7.47
2023-10-06T23:18:18.270Z,5.72
2023-10-06T23:20:47.379Z,4.65
2023-10-06T23:23:14.369Z,3.75
2023-10-06T23:25:47.658Z,5.60
2023-10-06T23:28:15.199Z,8.07
2023-10-06T23:30:42.193Z,7.68
2023-10-06T23:33:11.359Z,5.68
2023-10-06T23:35:38.583Z,6.95
2023-10-06T23:38:08.097Z,8.05
2023-10-06T23:40:35.659Z,6.57
2023-10-06T23:43:02.441Z,6.32
2023-10-06T23:45:32.183Z,5.57
2023-10-06T23:47:59.983Z,7.35
2023-10-06T23:50:30.360Z,6.13
2023-10-06T23:53:01.417Z,4.50
2023-10-06T23:55:29.191Z,6.55
2023-10-06T23:57:56.051Z,8.70
